createdAt,value
2022-10-16T00:01:56.116Z,0.40
2022-10-16T00:04:25.569Z,0.27
2022-10-16T00:06:55.057Z,0.30
2022-10-16T00:09:24.505Z,0.30
2022-10-16T00:14:23.881Z,0.30
2022-10-16T00:16:53.344Z,0.27
2022-10-16T00:19:22.939Z,0.37
2022-10-16T00:21:52.411Z,0.37
2022-10-16T00:24:21.849Z,0.30
2022-10-16T00:26:52.653Z,0.27
2022-10-16T00:29:22.091Z,0.30
2022-10-16T00:31:51.554Z,0.30
2022-10-16T00:34:21.004Z,0.30
2022-10-16T00:36:50.467Z,0.50
2022-10-16T00:39:20.409Z,0.40
2022-10-16T00:41:50.122Z,0.30
2022-10-16T00:44:58.644Z,0.30
2022-10-16T00:47:32.733Z,0.40
2022-10-16T00:50:12.009Z,0.30
2022-10-16T00:52:46.039Z,0.30
2022-10-16T00:55:16.197Z,0.43
2022-10-16T00:57:47.771Z,0.30
2022-10-16T01:00:22.509Z,0.30
2022-10-16T01:03:04.141Z,0.20
2022-10-16T01:05:43.862Z,0.27
2022-10-16T01:08:26.984Z,0.30
2022-10-16T01:11:12.773Z,0.30
2022-10-16T01:13:46.959Z,0.30
2022-10-16T01:16:40.082Z,0.30
2022-10-16T01:19:25.673Z,0.30
2022-10-16T01:21:59.473Z,0.37
2022-10-16T01:24:45.067Z,0.37
2022-10-16T01:27:34.389Z,0.40
2022-10-16T01:30:10.101Z,0.30
2022-10-16T01:32:59.364Z,0.30
2022-10-16T01:35:35.843Z,0.20
2022-10-16T01:38:18.688Z,0.20
2022-10-16T01:40:53.032Z,0.30
2022-10-16T01:43:32.958Z,0.20
2022-10-16T01:46:04.568Z,0.30
2022-10-16T01:48:36.253Z,0.23
2022-10-16T01:51:16.725Z,0.30
2022-10-16T01:53:50.796Z,0.30
2022-10-16T01:56:23.546Z,0.20
2022-10-16T01:59:00.152Z,0.20
2022-10-16T02:01:33.562Z,0.33
2022-10-16T02:04:07.823Z,0.30
2022-10-16T02:06:37.383Z,0.30
2022-10-16T02:09:06.892Z,0.30
2022-10-16T02:11:36.435Z,0.40
2022-10-16T02:14:09.013Z,0.30
2022-10-16T02:16:43.080Z,0.23
2022-10-16T02:19:14.683Z,0.27
2022-10-16T02:21:57.806Z,0.37
2022-10-16T02:24:46.781Z,0.20
2022-10-16T02:27:47.510Z,0.30
2022-10-16T02:30:24.469Z,0.30
2022-10-16T02:32:57.004Z,0.33
2022-10-16T02:35:28.230Z,0.20
2022-10-16T02:37:59.685Z,0.43
2022-10-16T02:40:30.408Z,0.23
2022-10-16T02:42:59.855Z,0.30
2022-10-16T02:45:30.242Z,0.20
2022-10-16T02:47:59.700Z,0.30
2022-10-16T02:50:29.276Z,0.30
2022-10-16T02:52:58.789Z,0.20
2022-10-16T02:55:28.900Z,0.27
2022-10-16T02:57:58.427Z,0.30
2022-10-16T03:00:27.953Z,0.30
2022-10-16T03:02:57.451Z,0.20
2022-10-16T03:05:27.033Z,0.20
2022-10-16T03:07:56.682Z,0.37
2022-10-16T03:10:26.258Z,0.30
2022-10-16T03:12:55.722Z,0.20
2022-10-16T03:15:25.230Z,0.30
2022-10-16T03:17:54.707Z,0.30
2022-10-16T03:20:24.357Z,0.20
2022-10-16T03:22:53.917Z,0.30
2022-10-16T03:25:23.378Z,0.30
2022-10-16T03:27:52.929Z,0.10
2022-10-16T03:30:22.757Z,0.40
2022-10-16T03:32:53.875Z,0.30
2022-10-16T03:35:25.169Z,0.23
2022-10-16T03:37:54.785Z,0.20
2022-10-16T03:40:24.356Z,0.30
2022-10-16T03:42:55.493Z,0.33
2022-10-16T03:45:25.345Z,0.10
2022-10-16T03:47:54.915Z,0.20
2022-10-16T03:50:24.416Z,0.20
2022-10-16T03:52:53.913Z,0.20
2022-10-16T03:55:23.392Z,0.30
2022-10-16T03:57:52.850Z,0.30
2022-10-16T04:00:22.360Z,0.13
2022-10-16T04:02:51.874Z,0.10
2022-10-16T04:05:21.499Z,0.30
2022-10-16T04:07:50.996Z,0.30
2022-10-16T04:10:20.632Z,0.30
2022-10-16T04:12:50.086Z,0.20
2022-10-16T04:15:19.619Z,0.20
2022-10-16T04:17:49.080Z,0.17
2022-10-16T04:20:18.658Z,0.20
2022-10-16T04:22:48.216Z,0.17
2022-10-16T04:25:17.765Z,0.27
2022-10-16T04:27:47.248Z,0.20
2022-10-16T04:30:16.786Z,0.20
2022-10-16T04:32:47.845Z,0.20
2022-10-16T04:35:17.598Z,0.20
2022-10-16T04:37:47.414Z,0.20
2022-10-16T04:40:17.542Z,0.20
2022-10-16T04:42:47.005Z,0.20
2022-10-16T04:45:17.294Z,0.20
2022-10-16T04:47:46.974Z,0.20
2022-10-16T04:50:16.471Z,0.20
2022-10-16T04:52:46.724Z,0.10
2022-10-16T04:55:16.574Z,0.30
2022-10-16T04:57:46.049Z,0.10
2022-10-16T05:00:15.779Z,0.17
2022-10-16T05:02:45.280Z,0.10
2022-10-16T05:05:15.427Z,0.20
2022-10-16T05:07:44.886Z,0.20
2022-10-16T05:10:14.372Z,0.20
2022-10-16T05:12:43.879Z,0.10
2022-10-16T05:15:13.445Z,0.20
2022-10-16T05:17:44.738Z,0.20
2022-10-16T05:20:14.585Z,0.23
2022-10-16T05:22:44.075Z,0.10
2022-10-16T05:25:13.574Z,0.10
2022-10-16T05:27:43.077Z,0.40
2022-10-16T05:30:12.816Z,0.30
2022-10-16T05:32:42.275Z,0.27
2022-10-16T05:35:12.788Z,0.30
2022-10-16T05:37:42.348Z,0.20
2022-10-16T05:40:13.988Z,0.30
2022-10-16T05:42:43.730Z,0.30
2022-10-16T05:45:14.123Z,0.30
2022-10-16T05:47:43.656Z,0.37
2022-10-16T05:50:13.177Z,0.27
2022-10-16T05:52:42.651Z,0.30
2022-10-16T05:55:12.196Z,0.30
2022-10-16T05:57:41.679Z,0.20
2022-10-16T06:00:12.633Z,0.20
2022-10-16T06:02:42.114Z,0.27
2022-10-16T06:05:11.685Z,0.30
2022-10-16T06:07:41.163Z,0.30
2022-10-16T06:10:11.048Z,0.30
2022-10-16T06:12:40.518Z,0.37
2022-10-16T06:15:10.463Z,0.50
2022-10-16T06:17:40.361Z,0.50
2022-10-16T06:20:11.134Z,0.60
2022-10-16T06:22:40.598Z,0.70
2022-10-16T06:25:10.439Z,0.60
2022-10-16T06:27:44.374Z,0.50
2022-10-16T06:30:13.930Z,0.50
2022-10-16T06:32:43.426Z,0.40
2022-10-16T06:35:12.880Z,0.50
2022-10-16T06:37:42.322Z,0.50
2022-10-16T06:40:11.913Z,0.40
2022-10-16T06:42:41.384Z,0.50
2022-10-16T06:45:11.583Z,0.20
2022-10-16T06:47:41.075Z,0.20
2022-10-16T06:50:10.797Z,0.43
2022-10-16T06:52:40.291Z,0.40
2022-10-16T06:55:10.220Z,0.30
2022-10-16T06:57:39.685Z,0.30
2022-10-16T07:00:09.857Z,0.37
2022-10-16T07:02:39.351Z,0.30
2022-10-16T07:05:09.361Z,0.30
2022-10-16T07:07:38.839Z,0.20
2022-10-16T07:10:08.651Z,0.30
2022-10-16T07:12:38.089Z,0.30
2022-10-16T07:15:08.191Z,0.40
2022-10-16T07:17:37.667Z,0.30
2022-10-16T07:20:07.707Z,0.20
2022-10-16T07:22:37.143Z,0.40
2022-10-16T07:25:07.299Z,0.30
2022-10-16T07:30:09.277Z,0.30
2022-10-16T07:32:38.864Z,0.50
2022-10-16T07:35:09.094Z,0.30
2022-10-16T07:37:38.519Z,0.27
2022-10-16T07:40:09.217Z,0.27
2022-10-16T07:42:38.673Z,0.30
2022-10-16T07:45:08.972Z,0.30
2022-10-16T07:47:38.421Z,0.30
2022-10-16T07:50:08.082Z,0.40
2022-10-16T07:52:37.527Z,0.40
2022-10-16T07:55:07.439Z,0.30
2022-10-16T07:57:36.878Z,0.23
2022-10-16T08:00:07.033Z,0.30
2022-10-16T08:02:36.473Z,0.33
2022-10-16T08:05:06.754Z,0.20
2022-10-16T08:07:36.198Z,0.30
2022-10-16T08:10:06.228Z,0.30
2022-10-16T08:12:35.673Z,0.37
2022-10-16T08:15:05.360Z,0.20
2022-10-16T08:17:34.800Z,0.27
2022-10-16T08:20:05.882Z,0.40
2022-10-16T08:22:35.316Z,0.40
2022-10-16T08:25:05.118Z,0.30
2022-10-16T08:27:35.852Z,0.30
2022-10-16T08:30:06.064Z,0.30
2022-10-16T08:32:35.516Z,0.37
2022-10-16T08:35:05.169Z,0.40
2022-10-16T08:37:35.272Z,0.47
2022-10-16T08:40:08.576Z,0.40
2022-10-16T08:42:42.635Z,0.40
2022-10-16T08:45:25.445Z,0.43
2022-10-16T08:48:31.151Z,0.47
2022-10-16T08:51:02.123Z,0.33
2022-10-16T08:53:47.150Z,0.40
2022-10-16T08:56:17.072Z,0.27
2022-10-16T08:58:49.752Z,0.40
2022-10-16T09:01:26.378Z,0.30
2022-10-16T09:04:20.851Z,0.40
2022-10-16T09:07:09.686Z,0.67
2022-10-16T09:09:52.350Z,0.30
2022-10-16T09:12:26.766Z,0.50
2022-10-16T09:15:20.177Z,0.30
2022-10-16T09:18:14.827Z,0.30
2022-10-16T09:20:48.899Z,0.50
2022-10-16T09:23:28.049Z,0.30
2022-10-16T09:26:00.967Z,0.50
2022-10-16T09:28:30.562Z,0.40
2022-10-16T09:31:00.290Z,0.40
2022-10-16T09:33:40.075Z,0.40
2022-10-16T09:36:12.267Z,0.30
2022-10-16T09:38:41.719Z,0.50
2022-10-16T09:41:23.542Z,0.40
2022-10-16T09:44:00.549Z,0.33
2022-10-16T09:46:37.101Z,0.40
2022-10-16T09:49:22.571Z,0.50
2022-10-16T09:51:54.609Z,0.40
2022-10-16T09:54:24.341Z,0.50
2022-10-16T09:56:55.055Z,0.70
2022-10-16T09:59:27.195Z,0.80
2022-10-16T10:01:59.514Z,0.70
2022-10-16T10:04:32.042Z,0.80
2022-10-16T10:07:02.326Z,0.90
2022-10-16T10:09:39.021Z,0.50
2022-10-16T10:12:19.753Z,0.60
2022-10-16T10:15:02.125Z,0.50
2022-10-16T10:17:32.370Z,0.30
2022-10-16T10:20:21.716Z,0.57
2022-10-16T10:22:51.486Z,0.50
2022-10-16T10:25:31.613Z,0.50
2022-10-16T10:28:38.703Z,0.30
2022-10-16T10:31:18.331Z,0.30
2022-10-16T10:34:07.396Z,0.60
2022-10-16T10:36:41.218Z,0.47
2022-10-16T10:39:48.065Z,0.37
2022-10-16T10:42:30.702Z,0.20
2022-10-16T10:45:19.640Z,0.50
2022-10-16T10:47:59.222Z,0.37
2022-10-16T10:51:12.401Z,0.40
2022-10-16T10:53:58.566Z,0.50
2022-10-16T10:56:50.959Z,0.30
2022-10-16T10:59:56.132Z,0.40
2022-10-16T11:02:30.418Z,0.43
2022-10-16T11:05:33.356Z,0.60
2022-10-16T11:08:07.417Z,0.60
2022-10-16T11:10:58.054Z,0.50
2022-10-16T11:13:53.417Z,0.40
2022-10-16T11:16:39.000Z,0.43
2022-10-16T11:19:44.943Z,0.30
2022-10-16T11:22:42.421Z,0.60
2022-10-16T11:25:25.108Z,0.77
2022-10-16T11:28:21.444Z,0.50
2022-10-16T11:31:04.159Z,0.60
2022-10-16T11:33:47.324Z,0.60
2022-10-16T11:36:21.369Z,0.63
2022-10-16T11:39:10.207Z,0.60
2022-10-16T11:41:52.893Z,0.60
2022-10-16T11:44:49.629Z,0.60
2022-10-16T11:47:54.081Z,0.50
2022-10-16T11:50:08.284Z,0.43
2022-10-16T11:53:03.460Z,0.40
2022-10-16T11:55:46.050Z,0.40
2022-10-16T11:58:27.827Z,0.40
2022-10-16T12:01:01.878Z,0.37
2022-10-16T12:03:58.623Z,0.60
2022-10-16T12:06:54.878Z,0.50
2022-10-16T12:09:37.594Z,0.50
2022-10-16T12:12:09.429Z,0.33
2022-10-16T12:15:03.971Z,0.40
2022-10-16T12:17:40.046Z,0.40
2022-10-16T12:20:23.069Z,0.30
2022-10-16T12:23:02.681Z,0.30
2022-10-16T12:25:40.907Z,0.67
2022-10-16T12:28:23.523Z,0.40
2022-10-16T12:31:13.429Z,0.60
2022-10-16T12:33:47.062Z,0.50
2022-10-16T12:36:24.317Z,0.40
2022-10-16T12:38:55.124Z,0.40
2022-10-16T12:41:35.561Z,0.40
2022-10-16T12:44:05.964Z,0.40
2022-10-16T12:46:41.507Z,0.40
2022-10-16T12:49:33.457Z,0.30
2022-10-16T12:52:03.035Z,0.30
2022-10-16T12:54:42.873Z,0.40
2022-10-16T12:57:50.027Z,0.40
2022-10-16T13:00:32.717Z,0.30
2022-10-16T13:03:38.310Z,0.27
2022-10-16T13:06:39.916Z,0.30
2022-10-16T13:09:38.422Z,0.30
2022-10-16T13:12:36.398Z,0.33
2022-10-16T13:15:35.696Z,0.33
2022-10-16T13:18:31.618Z,0.30
2022-10-16T13:21:17.277Z,0.67
2022-10-16T13:24:40.414Z,0.30
2022-10-16T13:27:36.737Z,0.20
2022-10-16T13:30:28.320Z,0.23
2022-10-16T13:33:10.409Z,0.43
2022-10-16T13:35:41.392Z,0.20
2022-10-16T13:38:17.725Z,0.27
2022-10-16T13:41:02.464Z,0.30
2022-10-16T13:43:45.513Z,0.30
2022-10-16T13:46:21.544Z,0.30
2022-10-16T13:49:02.900Z,0.40
2022-10-16T13:51:34.449Z,0.33
2022-10-16T13:54:03.916Z,0.40
2022-10-16T13:56:35.575Z,0.33
2022-10-16T13:59:09.348Z,0.20
2022-10-16T14:01:45.628Z,0.37
2022-10-16T14:04:17.586Z,0.20
2022-10-16T14:06:51.810Z,0.40
2022-10-16T14:09:31.708Z,0.30
2022-10-16T14:12:28.395Z,0.40
2022-10-16T14:15:01.217Z,0.30
2022-10-16T14:17:37.559Z,0.30
2022-10-16T14:20:10.263Z,0.43
2022-10-16T14:22:43.134Z,0.30
2022-10-16T14:25:46.995Z,0.27
2022-10-16T14:28:20.765Z,0.40
2022-10-16T14:31:00.724Z,0.30
2022-10-16T14:33:36.614Z,0.30
2022-10-16T14:36:12.769Z,0.23
2022-10-16T14:38:46.281Z,0.30
2022-10-16T14:41:16.783Z,0.47
2022-10-16T14:43:49.994Z,0.50
2022-10-16T14:46:24.984Z,0.30
2022-10-16T14:49:04.870Z,0.30
2022-10-16T14:51:34.317Z,0.30
2022-10-16T14:54:03.942Z,0.40
2022-10-16T14:56:40.505Z,0.20
2022-10-16T14:59:20.139Z,0.47
2022-10-16T15:01:50.320Z,0.23
2022-10-16T15:04:19.801Z,0.30
2022-10-16T15:06:49.532Z,0.30
2022-10-16T15:09:19.075Z,0.20
2022-10-16T15:11:48.514Z,0.30
2022-10-16T15:14:18.401Z,0.30
2022-10-16T15:16:47.844Z,0.30
2022-10-16T15:19:17.374Z,0.33
2022-10-16T15:21:46.847Z,0.30
2022-10-16T15:24:20.717Z,0.30
2022-10-16T15:26:48.545Z,0.20
2022-10-16T15:29:18.477Z,0.30
2022-10-16T15:31:48.651Z,0.20
2022-10-16T15:34:20.199Z,0.20
2022-10-16T15:36:49.644Z,0.30
2022-10-16T15:39:22.188Z,0.20
2022-10-16T15:41:52.310Z,0.20
2022-10-16T15:44:24.514Z,0.10
2022-10-16T15:46:56.648Z,0.30
2022-10-16T15:49:26.095Z,0.30
2022-10-16T15:51:56.058Z,0.13
2022-10-16T15:54:25.473Z,0.20
2022-10-16T15:56:54.927Z,0.20
2022-10-16T15:59:24.383Z,0.30
2022-10-16T16:01:53.913Z,0.20
2022-10-16T16:04:44.034Z,0.30
2022-10-16T16:06:55.450Z,0.30
2022-10-16T16:09:24.893Z,0.20
2022-10-16T16:11:54.522Z,0.20
2022-10-16T16:14:25.350Z,0.30
2022-10-16T16:16:54.887Z,0.30
2022-10-16T16:19:24.883Z,0.20
2022-10-16T16:21:54.351Z,0.57
2022-10-16T16:24:23.798Z,0.83
2022-10-16T16:26:53.341Z,1.00
2022-10-16T16:29:22.847Z,0.83
2022-10-16T16:31:53.961Z,0.80
2022-10-16T16:34:23.398Z,0.90
2022-10-16T16:36:53.397Z,1.00
2022-10-16T16:39:23.219Z,0.83
2022-10-16T16:41:53.329Z,0.70
2022-10-16T16:44:22.770Z,0.67
2022-10-16T16:46:52.499Z,1.00
2022-10-16T16:49:21.944Z,1.10
2022-10-16T16:51:51.404Z,1.00
2022-10-16T16:54:20.948Z,1.07
2022-10-16T16:56:50.396Z,0.80
2022-10-16T16:59:22.979Z,1.00
2022-10-16T17:01:56.594Z,0.83
2022-10-16T17:04:24.224Z,1.00
2022-10-16T17:06:55.623Z,0.83
2022-10-16T17:09:25.439Z,0.90
2022-10-16T17:11:54.973Z,1.23
2022-10-16T17:14:24.475Z,1.53
2022-10-16T17:16:56.480Z,1.47
2022-10-16T17:19:25.997Z,1.27
2022-10-16T17:21:55.517Z,1.20
2022-10-16T17:24:25.047Z,1.00
2022-10-16T17:26:54.529Z,1.10
2022-10-16T17:29:23.994Z,0.90
2022-10-16T17:31:53.450Z,0.70
2022-10-16T17:34:22.887Z,0.90
2022-10-16T17:36:53.489Z,0.70
2022-10-16T17:39:23.304Z,0.80
2022-10-16T17:41:53.444Z,0.77
2022-10-16T17:44:23.726Z,0.80
2022-10-16T17:46:55.390Z,0.70
2022-10-16T17:51:55.995Z,0.80
2022-10-16T17:54:25.667Z,1.23
2022-10-16T17:56:55.167Z,0.80
2022-10-16T17:59:24.600Z,0.77
2022-10-16T18:01:54.285Z,0.65
2022-10-16T18:04:23.755Z,0.70
2022-10-16T18:06:53.208Z,0.70
2022-10-16T18:09:22.733Z,0.80
2022-10-16T18:11:53.841Z,0.60
2022-10-16T18:14:23.354Z,0.60
2022-10-16T18:16:53.073Z,0.80
2022-10-16T18:19:23.022Z,1.10
2022-10-16T18:21:52.993Z,1.50
2022-10-16T18:24:26.422Z,1.37
2022-10-16T18:26:57.829Z,1.57
2022-10-16T18:29:28.890Z,1.70
2022-10-16T18:31:58.371Z,1.90
2022-10-16T18:34:27.894Z,1.30
2022-10-16T18:36:57.753Z,1.40
2022-10-16T18:39:27.454Z,1.47
2022-10-16T18:41:58.578Z,1.20
2022-10-16T18:44:30.797Z,0.90
2022-10-16T18:47:01.903Z,1.20
2022-10-16T18:49:31.353Z,1.03
2022-10-16T18:52:02.451Z,1.20
2022-10-16T18:54:32.639Z,1.20
2022-10-16T18:57:02.094Z,4.30
2022-10-16T18:59:31.610Z,3.90
2022-10-16T19:02:01.488Z,3.93
2022-10-16T19:04:31.002Z,3.30
2022-10-16T19:07:00.453Z,2.30
2022-10-16T19:09:29.902Z,2.33
2022-10-16T19:11:59.643Z,2.37
2022-10-16T19:14:30.207Z,2.30
2022-10-16T19:16:59.701Z,2.43
2022-10-16T19:19:29.136Z,2.67
2022-10-16T19:22:00.240Z,2.77
2022-10-16T19:24:29.757Z,3.10
2022-10-16T19:26:59.219Z,2.40
2022-10-16T19:29:28.670Z,1.93
2022-10-16T19:31:58.298Z,1.63
2022-10-16T19:34:27.752Z,1.80
2022-10-16T19:36:57.674Z,1.60
2022-10-16T19:39:27.122Z,1.80
2022-10-16T19:41:56.583Z,1.63
2022-10-16T19:44:26.995Z,1.70
2022-10-16T19:46:56.446Z,1.70
2022-10-16T19:49:25.899Z,1.60
2022-10-16T19:51:55.367Z,1.60
2022-10-16T19:54:24.823Z,1.37
2022-10-16T19:56:54.410Z,1.67
2022-10-16T19:59:23.856Z,1.57
2022-10-16T20:01:53.464Z,2.70
2022-10-16T20:04:22.913Z,1.80
2022-10-16T20:06:52.453Z,2.00
2022-10-16T20:09:21.906Z,1.80
2022-10-16T20:11:51.365Z,2.10
2022-10-16T20:14:20.880Z,1.97
2022-10-16T20:16:50.349Z,1.83
2022-10-16T20:19:20.162Z,2.00
2022-10-16T20:21:49.632Z,1.50
2022-10-16T20:24:19.088Z,1.63
2022-10-16T20:26:49.598Z,1.50
2022-10-16T20:29:19.208Z,1.70
2022-10-16T20:31:48.676Z,1.27
2022-10-16T20:34:18.312Z,1.70
2022-10-16T20:36:49.385Z,1.30
2022-10-16T20:39:18.829Z,1.70
2022-10-16T20:41:48.294Z,1.40
2022-10-16T20:44:17.757Z,1.43
2022-10-16T20:46:47.213Z,1.60
2022-10-16T20:49:35.975Z,1.40
2022-10-16T20:51:49.575Z,1.47
2022-10-16T20:54:19.017Z,1.60
2022-10-16T20:56:48.510Z,1.57
2022-10-16T20:59:17.970Z,2.00
2022-10-16T21:01:47.483Z,1.87
2022-10-16T21:04:16.959Z,1.60
2022-10-16T21:06:46.437Z,1.47
2022-10-16T21:09:15.874Z,1.70
2022-10-16T21:11:45.615Z,1.60
2022-10-16T21:14:15.054Z,1.50
2022-10-16T21:16:44.684Z,1.67
2022-10-16T21:19:14.121Z,1.50
2022-10-16T21:21:43.591Z,1.80
2022-10-16T21:24:16.570Z,1.60
2022-10-16T21:26:44.862Z,1.60
2022-10-16T21:29:14.844Z,1.90
2022-10-16T21:31:44.672Z,1.80
2022-10-16T21:34:14.381Z,2.20
2022-10-16T21:36:44.685Z,1.80
2022-10-16T21:39:18.793Z,1.60
2022-10-16T21:41:51.743Z,1.90
2022-10-16T21:44:21.352Z,1.60
2022-10-16T21:46:52.424Z,1.70
2022-10-16T21:49:21.857Z,1.60
2022-10-16T21:51:52.867Z,1.30
2022-10-16T21:54:25.124Z,1.60
2022-10-16T21:56:54.729Z,1.33
2022-10-16T21:59:24.174Z,1.50
2022-10-16T22:01:57.012Z,1.53
2022-10-16T22:04:26.466Z,1.67
2022-10-16T22:06:55.917Z,1.50
2022-10-16T22:09:25.373Z,1.47
2022-10-16T22:11:54.839Z,1.30
2022-10-16T22:14:24.286Z,1.40
2022-10-16T22:16:53.748Z,1.40
2022-10-16T22:19:24.039Z,1.40
2022-10-16T22:21:57.298Z,1.60
2022-10-16T22:24:26.809Z,1.20
2022-10-16T22:26:56.457Z,1.40
2022-10-16T22:29:25.987Z,1.43
2022-10-16T22:31:55.708Z,1.60
2022-10-16T22:34:25.167Z,1.40
2022-10-16T22:36:54.617Z,1.50
2022-10-16T22:39:24.067Z,1.90
2022-10-16T22:41:53.511Z,1.53
2022-10-16T22:44:22.971Z,1.30
2022-10-16T22:46:52.552Z,1.47
2022-10-16T22:49:22.006Z,1.40
2022-10-16T22:54:20.993Z,1.43
2022-10-16T22:56:50.519Z,1.37
2022-10-16T22:59:19.980Z,1.47
2022-10-16T23:01:49.431Z,1.40
2022-10-16T23:04:18.887Z,1.40
2022-10-16T23:06:48.329Z,1.20
2022-10-16T23:09:17.786Z,1.47
2022-10-16T23:11:47.239Z,1.10
2022-10-16T23:14:24.636Z,1.00
2022-10-16T23:16:54.076Z,1.30
2022-10-16T23:19:23.550Z,1.27
2022-10-16T23:21:53.062Z,1.30
2022-10-16T23:24:22.522Z,1.50
2022-10-16T23:26:51.976Z,1.27
2022-10-16T23:29:21.440Z,1.50
2022-10-16T23:31:50.972Z,1.30
2022-10-16T23:34:20.558Z,1.63
2022-10-16T23:36:50.503Z,1.40
2022-10-16T23:39:20.095Z,1.30
2022-10-16T23:41:49.628Z,1.33
2022-10-16T23:44:19.162Z,1.60
2022-10-16T23:46:48.654Z,1.30
2022-10-16T23:49:18.205Z,1.90
2022-10-16T23:51:47.880Z,1.50
2022-10-16T23:54:17.437Z,1.77
2022-10-16T23:56:46.938Z,2.00
2022-10-16T23:59:16.514Z,1.50
